Time;durP1;ratioP1;P1;durP2;ratioP2;P2;SDS_P1;SDS_P2;PMS_P1;PMS_P2;Temp;Humidity;BMP_temperature;BMP_pressure;BME280_temperature;BME280_humidity;BME280_pressure;Samples;Min_cycle;Max_cycle;Signal;HPM_P1;HPM_P2
2021/03/05 00:00:35;;;;;;;2.92;0.90;;;0.50;1.00;;;;;;5138597;27;20186;-66
2021/03/05 00:03:01;;;;;;;5.07;1.10;;;0.50;1.00;;;;;;5137169;28;20178;-68
2021/03/05 00:05:27;;;;;;;1.40;0.90;;;0.50;1.00;;;;;;5136952;28;20301;-64
2021/03/05 00:07:53;;;;;;;1.50;0.83;;;0.40;1.00;;;;;;5137813;28;20174;-65
2021/03/05 00:10:25;;;;;;;7.22;1.55;;;0.50;1.00;;;;;;5137607;28;20189;-67
2021/03/05 00:12:51;;;;;;;3.53;0.80;;;0.50;1.00;;;;;;5135697;28;20257;-66
2021/03/05 00:15:17;;;;;;;2.13;0.93;;;0.50;1.00;;;;;;5137511;27;20217;-64
2021/03/05 00:17:43;;;;;;;1.75;0.60;;;0.60;23.20;;;;;;5137563;28;20175;-64
2021/03/05 00:20:11;;;;;;;1.33;0.97;;;0.40;99.90;;;;;;5136879;28;20179;-60
2021/03/05 00:22:38;;;;;;;1.02;0.82;;;0.50;99.90;;;;;;5137993;27;20487;-60
2021/03/05 00:25:04;;;;;;;1.05;0.68;;;0.40;99.90;;;;;;5137972;27;20198;-62
2021/03/05 00:27:30;;;;;;;0.93;0.73;;;0.40;99.90;;;;;;5137907;27;20273;-64
2021/03/05 00:29:56;;;;;;;1.50;1.40;;;0.40;99.90;;;;;;5137757;28;20521;-63
2021/03/05 00:32:22;;;;;;;6.37;1.17;;;0.40;99.90;;;;;;5137588;27;20686;-65
2021/03/05 00:34:47;;;;;;;4.37;1.00;;;0.40;99.90;;;;;;5138012;28;20744;-67
2021/03/05 00:37:13;;;;;;;0.50;0.37;;;0.40;99.90;;;;;;5137876;27;20565;-62
2021/03/05 00:39:38;;;;;;;2.80;2.03;;;0.40;99.90;;;;;;5142016;27;20568;-62
2021/03/05 00:42:04;;;;;;;1.83;0.70;;;0.40;99.90;;;;;;5142101;27;20175;-62
2021/03/05 00:44:30;;;;;;;2.30;0.80;;;0.40;99.90;;;;;;5141625;27;20283;-63
2021/03/05 00:46:56;;;;;;;2.33;1.20;;;0.30;99.90;;;;;;5141517;27;20428;-62
2021/03/05 00:49:21;;;;;;;2.30;0.70;;;0.40;99.90;;;;;;5141827;27;20198;-62
2021/03/05 00:51:47;;;;;;;2.77;1.00;;;0.40;99.90;;;;;;5141551;27;20206;-63
2021/03/05 00:54:13;;;;;;;3.40;0.83;;;0.40;99.90;;;;;;5141440;27;20179;-65
2021/03/05 00:56:38;;;;;;;1.20;0.80;;;0.40;99.90;;;;;;5141691;27;20183;-62
2021/03/05 00:59:04;;;;;;;4.50;1.00;;;0.40;99.90;;;;;;5141182;27;20182;-63
2021/03/05 01:01:30;;;;;;;1.80;0.77;;;0.40;99.90;;;;;;5141606;27;20182;-63
2021/03/05 01:03:55;;;;;;;2.00;1.07;;;0.40;99.90;;;;;;5141540;27;20266;-62
2021/03/05 01:06:21;;;;;;;3.10;1.10;;;0.30;99.90;;;;;;5141163;27;20190;-62
2021/03/05 01:08:47;;;;;;;1.77;1.07;;;0.20;99.90;;;;;;5141009;27;20258;-63
2021/03/05 01:11:12;;;;;;;1.47;1.10;;;0.20;99.90;;;;;;5141501;27;20743;-62
2021/03/05 01:13:38;;;;;;;2.63;1.03;;;0.20;59.60;;;;;;5140995;27;20179;-62
2021/03/05 01:16:04;;;;;;;1.17;0.60;;;0.30;1.30;;;;;;5140876;27;20198;-62
2021/03/05 01:18:29;;;;;;;2.77;1.47;;;0.30;1.00;;;;;;5141048;27;20171;-62
2021/03/05 01:20:55;;;;;;;4.03;1.33;;;0.30;1.00;;;;;;5141499;27;20454;-62
2021/03/05 01:23:20;;;;;;;4.67;1.27;;;0.40;1.00;;;;;;5140857;27;20182;-62
2021/03/05 01:25:46;;;;;;;2.87;1.07;;;0.30;1.00;;;;;;5140926;27;20221;-63
2021/03/05 01:28:12;;;;;;;1.60;0.77;;;0.40;1.00;;;;;;5140729;27;20189;-62
2021/03/05 01:30:38;;;;;;;1.65;0.70;;;0.20;22.10;;;;;;5141104;27;20179;-63
2021/03/05 01:33:04;;;;;;;2.70;0.93;;;0.30;99.90;;;;;;5140959;27;20617;-63
2021/03/05 01:35:33;;;;;;;1.70;1.00;;;0.30;99.90;;;;;;5140951;27;20436;-63
2021/03/05 01:37:59;;;;;;;6.55;1.30;;;0.30;99.90;;;;;;5141413;27;20178;-63
2021/03/05 01:40:31;;;;;;;1.97;0.83;;;0.30;99.90;;;;;;5140438;27;20271;-64
2021/03/05 01:42:57;;;;;;;3.83;1.00;;;0.30;99.90;;;;;;5140879;27;20179;-67
2021/03/05 01:45:28;;;;;;;1.80;1.57;;;0.20;99.90;;;;;;5139436;27;20661;-64
2021/03/05 01:47:59;;;;;;;2.38;0.85;;;0.20;99.90;;;;;;5140139;27;20201;-64
2021/03/05 01:50:30;;;;;;;6.07;1.33;;;0.20;99.90;;;;;;5140418;27;20206;-64
2021/03/05 01:53:04;;;;;;;2.72;1.20;;;0.20;99.90;;;;;;5140548;27;20235;-64
2021/03/05 01:55:30;;;;;;;1.48;1.00;;;0.20;99.90;;;;;;5139692;27;20220;-64
2021/03/05 01:57:56;;;;;;;4.03;1.20;;;0.10;99.90;;;;;;5140834;27;20174;-64
2021/03/05 02:00:38;;;;;;;6.72;1.65;;;0.20;99.90;;;;;;5140946;27;20178;-65
2021/03/05 02:03:04;;;;;;;3.40;1.77;;;0.20;99.90;;;;;;5140518;27;20270;-63
2021/03/05 02:05:30;;;;;;;2.88;2.08;;;0.20;99.90;;;;;;5139827;27;20283;-63
2021/03/05 02:07:56;;;;;;;5.18;3.92;;;0.10;99.90;;;;;;5139182;27;20771;-63
2021/03/05 02:10:21;;;;;;;3.73;2.13;;;0.20;99.90;;;;;;5139887;27;20182;-62
2021/03/05 02:12:47;;;;;;;9.30;3.30;;;0.20;99.90;;;;;;5139493;27;20175;-62
2021/03/05 02:15:13;;;;;;;5.10;3.20;;;0.10;99.90;;;;;;5139874;27;20234;-62
2021/03/05 02:18:08;;;;;;;3.28;1.80;;;0.10;99.90;;;;;;5139713;27;20561;-63
2021/03/05 02:20:57;;;;;;;3.28;1.50;;;0.10;99.90;;;;;;5139740;27;20182;-66
2021/03/05 02:23:47;;;;;;;2.55;1.80;;;0.10;99.90;;;;;;5138939;27;20170;-61
2021/03/05 02:26:22;;;;;;;4.88;1.50;;;0.10;99.90;;;;;;5139421;27;20232;-62
2021/03/05 02:29:25;;;;;;;1.05;0.88;;;0.10;99.90;;;;;;5138659;27;20177;-62
2021/03/05 02:31:54;;;;;;;0.77;0.52;;;0.10;99.90;;;;;;5139202;27;20203;-63
2021/03/05 02:34:30;;;;;;;5.93;1.17;;;0.10;99.90;;;;;;5140026;27;20189;-62
2021/03/05 02:36:59;;;;;;;2.60;1.55;;;0.10;99.90;;;;;;5139661;27;20181;-63
2021/03/05 02:39:49;;;;;;;2.45;0.93;;;0.10;99.90;;;;;;5138547;27;20186;-63
2021/03/05 02:42:22;;;;;;;5.97;1.00;;;0.10;99.90;;;;;;5127491;27;20195;-64
2021/03/05 02:44:56;;;;;;;3.30;0.90;;;0.00;99.90;;;;;;5139357;27;20202;-62
2021/03/05 02:47:24;;;;;;;1.02;0.68;;;0.00;99.90;;;;;;5139549;27;20183;-62
2021/03/05 02:49:53;;;;;;;2.05;0.70;;;0.10;99.90;;;;;;5139697;27;20515;-62
2021/03/05 02:52:20;;;;;;;4.82;0.90;;;0.00;99.90;;;;;;5139150;27;20171;-62
2021/03/05 02:54:56;;;;;;;1.48;0.63;;;0.00;99.90;;;;;;5139487;27;20243;-64
2021/03/05 02:57:27;;;;;;;1.58;0.82;;;0.10;99.90;;;;;;5139395;27;20215;-62
2021/03/05 02:59:54;;;;;;;2.15;1.35;;;0.10;99.90;;;;;;5139298;27;20198;-64
2021/03/05 03:02:24;;;;;;;1.58;0.68;;;0.00;99.90;;;;;;5121206;27;20222;-64
2021/03/05 03:04:51;;;;;;;4.15;1.42;;;0.00;99.90;;;;;;5138570;27;20282;-65
2021/03/05 03:07:17;;;;;;;2.38;0.90;;;0.10;99.90;;;;;;5138902;27;20513;-63
2021/03/05 03:09:43;;;;;;;1.60;0.95;;;0.10;99.90;;;;;;5138222;27;20213;-63
2021/03/05 03:12:10;;;;;;;1.47;0.80;;;0.00;99.90;;;;;;5139671;27;20179;-65
2021/03/05 03:14:39;;;;;;;1.95;0.68;;;0.00;99.90;;;;;;5138977;27;20424;-64
2021/03/05 03:17:07;;;;;;;3.28;1.00;;;0.10;99.90;;;;;;5138309;27;20189;-62
2021/03/05 03:19:34;;;;;;;1.63;1.52;;;0.10;99.90;;;;;;5137876;27;20182;-62
2021/03/05 03:22:03;;;;;;;0.55;0.52;;;0.00;99.90;;;;;;5139131;27;20195;-62
2021/03/05 03:24:31;;;;;;;4.70;1.25;;;0.00;99.90;;;;;;5139094;27;20198;-62
2021/03/05 03:26:58;;;;;;;1.25;0.82;;;0.00;99.90;;;;;;5138261;27;20188;-64
2021/03/05 03:29:23;;;;;;;3.97;1.33;;;-0.10;99.90;;;;;;5138067;27;20570;-63
2021/03/05 03:31:49;;;;;;;10.97;1.90;;;0.00;99.90;;;;;;5138007;27;20206;-62
2021/03/05 03:34:16;;;;;;;3.08;0.95;;;-0.10;1.00;;;;;;5136983;27;20607;-66
2021/03/05 03:36:41;;;;;;;2.55;1.08;;;0.00;1.00;;;;;;5138819;27;20174;-63
2021/03/05 03:39:09;;;;;;;2.10;0.90;;;-0.10;1.00;;;;;;5138246;27;20704;-63
2021/03/05 03:41:37;;;;;;;5.15;1.08;;;-0.10;1.00;;;;;;5138746;27;20430;-67
2021/03/05 03:44:08;;;;;;;1.17;1.00;;;-0.20;1.00;;;;;;5138197;27;20195;-62
2021/03/05 03:46:38;;;;;;;1.20;0.88;;;-0.20;1.00;;;;;;5138757;27;20604;-62
2021/03/05 03:49:10;;;;;;;1.83;1.23;;;-0.20;1.00;;;;;;5138646;27;20193;-63
2021/03/05 03:51:41;;;;;;;3.20;0.98;;;-0.20;1.00;;;;;;5138401;27;20166;-62
2021/03/05 03:54:12;;;;;;;0.65;0.57;;;-0.20;1.00;;;;;;5138296;27;20193;-64
2021/03/05 03:56:38;;;;;;;1.00;0.80;;;-0.20;1.00;;;;;;5138003;27;20171;-64
2021/03/05 03:59:05;;;;;;;1.13;0.82;;;-0.10;1.00;;;;;;5138481;27;20261;-65
2021/03/05 04:01:31;;;;;;;1.23;1.13;;;-0.10;1.00;;;;;;5138431;27;20194;-63
2021/03/05 04:04:00;;;;;;;3.20;1.15;;;-0.20;1.00;;;;;;5137440;28;20182;-66
2021/03/05 04:06:27;;;;;;;2.25;1.05;;;-0.30;1.00;;;;;;5138058;27;20186;-63
2021/03/05 04:08:54;;;;;;;6.07;1.30;;;-0.40;1.00;;;;;;5138092;27;20193;-64
2021/03/05 04:11:21;;;;;;;2.22;1.20;;;-0.40;1.00;;;;;;5137470;27;20236;-64
2021/03/05 04:13:48;;;;;;;3.47;1.40;;;-0.40;1.00;;;;;;5142579;27;20274;-64
2021/03/05 04:16:14;;;;;;;5.53;2.10;;;-0.50;1.00;;;;;;5143201;27;20270;-63
2021/03/05 04:18:41;;;;;;;1.80;1.30;;;-0.50;1.00;;;;;;5144184;27;20603;-65
2021/03/05 04:21:26;;;;;;;2.67;1.75;;;-0.50;1.00;;;;;;5142671;27;20217;-63
2021/03/05 04:23:52;;;;;;;4.70;2.00;;;-0.50;1.00;;;;;;5142840;27;20226;-64
2021/03/05 04:26:18;;;;;;;4.80;1.33;;;-0.50;1.00;;;;;;5142362;27;20209;-67
2021/03/05 04:28:43;;;;;;;1.77;1.13;;;-0.50;1.00;;;;;;5140718;27;20557;-64
2021/03/05 04:31:12;;;;;;;3.90;1.60;;;-0.60;1.00;;;;;;5142929;27;20265;-68
2021/03/05 04:33:38;;;;;;;1.85;1.15;;;-0.60;1.00;;;;;;5141993;27;20672;-66
2021/03/05 04:36:05;;;;;;;2.73;1.47;;;-0.60;1.00;;;;;;5142029;27;20179;-65
2021/03/05 04:38:33;;;;;;;2.38;1.35;;;-0.70;1.00;;;;;;5141913;27;20690;-65
2021/03/05 04:40:59;;;;;;;2.25;1.55;;;-0.70;1.00;;;;;;5142313;27;20190;-64
2021/03/05 04:43:25;;;;;;;5.70;1.70;;;-0.70;1.00;;;;;;5141511;27;20178;-68
2021/03/05 04:45:53;;;;;;;2.80;1.30;;;-0.70;1.00;;;;;;5141367;27;20251;-63
2021/03/05 04:48:19;;;;;;;4.97;1.30;;;-0.70;1.00;;;;;;5141354;27;20440;-65
2021/03/05 04:50:44;;;;;;;4.03;1.43;;;-0.80;1.00;;;;;;5140719;27;20190;-65
2021/03/05 04:53:10;;;;;;;2.43;1.63;;;-0.90;1.00;;;;;;5140788;27;20606;-65
2021/03/05 04:55:36;;;;;;;2.83;1.50;;;-0.90;1.00;;;;;;5141730;27;20516;-63
2021/03/05 04:58:03;;;;;;;3.07;1.50;;;-0.90;1.00;;;;;;5141454;27;20178;-64
2021/03/05 05:00:29;;;;;;;3.15;1.58;;;-0.80;1.00;;;;;;5141594;27;20175;-65
2021/03/05 05:02:54;;;;;;;7.80;1.77;;;-0.90;1.00;;;;;;5141632;27;20185;-66
2021/03/05 05:05:20;;;;;;;2.07;1.57;;;-0.90;1.00;;;;;;5140358;27;20491;-65
2021/03/05 05:07:46;;;;;;;2.50;1.87;;;-0.90;1.00;;;;;;5140039;28;20208;-66
2021/03/05 05:10:12;;;;;;;3.63;1.57;;;-0.80;1.00;;;;;;5139737;28;20599;-65
2021/03/05 05:12:37;;;;;;;2.55;1.85;;;-0.80;1.00;;;;;;5139236;27;20200;-65
2021/03/05 05:15:05;;;;;;;3.03;2.63;;;-0.80;1.00;;;;;;5139074;28;20654;-63
2021/03/05 05:17:30;;;;;;;4.25;2.33;;;-0.80;1.00;;;;;;5138443;28;20239;-63
2021/03/05 05:19:56;;;;;;;3.00;1.40;;;-0.90;1.00;;;;;;5139419;28;20177;-62
2021/03/05 05:22:22;;;;;;;3.40;1.85;;;-1.00;1.00;;;;;;5139504;27;20183;-62
2021/03/05 05:24:48;;;;;;;3.27;1.90;;;-1.00;1.00;;;;;;5139176;27;20532;-63
2021/03/05 05:27:16;;;;;;;1.70;1.47;;;-1.00;1.00;;;;;;5139775;28;20196;-63
2021/03/05 05:29:42;;;;;;;1.75;1.30;;;-1.10;1.00;;;;;;5140468;28;20189;-63
2021/03/05 05:32:07;;;;;;;5.33;1.77;;;-1.00;1.00;;;;;;5139682;28;20175;-65
2021/03/05 05:34:33;;;;;;;6.97;1.80;;;-1.00;1.00;;;;;;5139075;28;20174;-62
2021/03/05 05:36:59;;;;;;;4.77;1.47;;;-1.10;1.00;;;;;;5139283;28;20179;-63
2021/03/05 05:39:24;;;;;;;3.40;2.07;;;-1.00;1.00;;;;;;5139196;27;20174;-64
2021/03/05 05:41:50;;;;;;;6.40;1.93;;;-1.00;1.00;;;;;;5138998;28;20451;-62
2021/03/05 05:44:16;;;;;;;3.05;1.70;;;-1.00;1.00;;;;;;5138590;27;20253;-61
2021/03/05 05:46:42;;;;;;;6.10;2.90;;;-1.00;1.00;;;;;;5137247;28;20619;-62
2021/03/05 05:49:11;;;;;;;3.08;1.60;;;-1.00;1.00;;;;;;5137874;27;20265;-63
2021/03/05 05:51:39;;;;;;;3.38;1.67;;;-1.00;1.00;;;;;;5138802;27;20178;-64
2021/03/05 05:54:19;;;;;;;6.47;1.70;;;-1.00;1.00;;;;;;5139097;27;20179;-63
2021/03/05 05:56:45;;;;;;;2.20;1.75;;;-1.10;1.00;;;;;;5138897;27;20183;-63
2021/03/05 05:59:11;;;;;;;4.70;2.40;;;-1.00;1.00;;;;;;5138042;28;20175;-70
2021/03/05 06:01:37;;;;;;;6.93;2.30;;;-1.00;1.00;;;;;;5138982;28;20175;-67
2021/03/05 06:04:03;;;;;;;7.33;2.40;;;-1.10;1.00;;;;;;5138983;27;20580;-63
2021/03/05 06:06:32;;;;;;;7.20;2.60;;;-1.00;1.00;;;;;;5120316;27;537038;-61
2021/03/05 06:08:59;;;;;;;4.80;2.10;;;-1.00;1.00;;;;;;5139642;27;20183;-63
2021/03/05 06:11:43;;;;;;;2.30;1.90;;;-1.00;1.00;;;;;;5139251;27;20183;-62
2021/03/05 06:14:13;;;;;;;2.97;2.67;;;-0.90;1.00;;;;;;5139157;27;20171;-61
2021/03/05 06:16:59;;;;;;;5.18;2.58;;;-1.00;1.00;;;;;;5139235;27;20599;-62
2021/03/05 06:19:29;;;;;;;5.10;2.30;;;-0.90;1.00;;;;;;5139186;27;20170;-63
2021/03/05 06:21:55;;;;;;;2.13;1.90;;;-0.90;1.00;;;;;;5139299;27;20242;-63
2021/03/05 06:24:22;;;;;;;3.45;2.42;;;-0.80;1.00;;;;;;5138640;27;20254;-63
2021/03/05 06:26:51;;;;;;;4.30;2.33;;;-0.60;1.00;;;;;;5138769;27;20197;-69
2021/03/05 06:29:19;;;;;;;2.83;2.50;;;0.00;1.00;;;;;;5137877;27;20631;-64
2021/03/05 06:32:04;;;;;;;2.35;2.15;;;0.20;99.90;;;;;;5139138;27;20181;-66
2021/03/05 06:34:43;;;;;;;4.97;2.60;;;0.30;99.90;;;;;;5138695;27;20197;-64
2021/03/05 06:37:08;;;;;;;3.15;2.03;;;0.10;1.00;;;;;;5138942;27;20239;-70
2021/03/05 06:39:35;;;;;;;3.30;2.03;;;-0.10;1.00;;;;;;5138078;27;20186;-64
2021/03/05 06:42:24;;;;;;;5.75;2.53;;;-0.30;15.00;;;;;;5138846;27;20182;-64
2021/03/05 06:44:50;;;;;;;3.70;2.50;;;-0.20;99.90;;;;;;5127869;27;20222;-64
2021/03/05 06:47:20;;;;;;;3.70;2.10;;;-0.10;99.90;;;;;;5139068;27;20265;-64
2021/03/05 06:49:47;;;;;;;3.78;2.55;;;0.00;99.90;;;;;;5138101;27;20420;-63
2021/03/05 06:52:14;;;;;;;4.25;1.90;;;0.40;98.50;;;;;;5138395;27;20225;-68
2021/03/05 06:54:42;;;;;;;3.13;2.40;;;0.30;1.00;;;;;;5138430;27;20269;-65
2021/03/05 06:57:11;;;;;;;4.53;2.60;;;0.00;1.00;;;;;;5138399;27;20209;-67
2021/03/05 06:59:42;;;;;;;4.78;2.47;;;-0.20;1.00;;;;;;5138749;27;20265;-65
2021/03/05 07:02:09;;;;;;;4.28;2.58;;;-0.20;1.00;;;;;;5138065;27;20179;-65
2021/03/05 07:04:47;;;;;;;6.00;2.20;;;-0.20;38.50;;;;;;5138507;27;20320;-63
2021/03/05 07:07:13;;;;;;;2.72;2.50;;;-0.10;99.90;;;;;;5137742;27;20194;-63
2021/03/05 07:09:47;;;;;;;4.80;2.85;;;0.00;99.90;;;;;;5138180;27;20173;-64
2021/03/05 07:12:15;;;;;;;7.03;2.95;;;0.10;94.30;;;;;;5137927;27;20171;-63
2021/03/05 07:14:46;;;;;;;3.58;2.67;;;0.20;27.70;;;;;;5137751;27;20273;-64
2021/03/05 07:17:13;;;;;;;3.67;2.08;;;0.20;1.00;;;;;;5136611;27;20566;-64
2021/03/05 07:19:39;;;;;;;3.50;2.38;;;0.30;1.00;;;;;;5137847;27;20218;-64
2021/03/05 07:22:07;;;;;;;4.40;2.85;;;0.20;1.00;;;;;;5138288;27;20178;-63
2021/03/05 07:24:34;;;;;;;4.78;3.80;;;0.10;1.00;;;;;;5137930;27;20251;-64
2021/03/05 07:27:07;;;;;;;7.70;3.42;;;0.30;1.00;;;;;;5134389;27;20243;-63
2021/03/05 07:29:36;;;;;;;4.35;2.15;;;0.40;1.00;;;;;;5134490;27;20501;-63
2021/03/05 07:32:08;;;;;;;4.07;2.20;;;0.30;99.90;;;;;;5136814;27;20626;-64
2021/03/05 07:34:38;;;;;;;3.95;2.13;;;0.40;99.90;;;;;;5136687;27;20307;-63
2021/03/05 07:37:06;;;;;;;5.50;3.58;;;0.40;99.90;;;;;;5137634;27;20186;-63
2021/03/05 07:39:37;;;;;;;5.38;3.00;;;0.50;42.70;;;;;;5140036;27;20192;-63
2021/03/05 07:42:07;;;;;;;7.97;3.58;;;0.50;6.70;;;;;;5138828;27;20228;-63
2021/03/05 07:44:35;;;;;;;2.78;2.40;;;0.60;1.00;;;;;;5137414;27;20221;-63
2021/03/05 07:47:01;;;;;;;6.20;3.00;;;0.60;99.90;;;;;;5137868;27;20588;-69
2021/03/05 07:49:29;;;;;;;3.10;2.38;;;0.60;99.90;;;;;;5131150;27;20197;-67
2021/03/05 07:51:57;;;;;;;3.97;2.60;;;0.60;99.90;;;;;;5121440;27;20186;-68
2021/03/05 07:54:55;;;;;;;3.30;2.40;;;0.60;99.90;;;;;;5137387;27;20185;-67
2021/03/05 07:57:24;;;;;;;6.35;2.72;;;0.60;99.90;;;;;;5105247;28;20226;-69
2021/03/05 07:59:51;;;;;;;6.60;2.58;;;0.80;20.70;;;;;;5123548;28;20183;-63
2021/03/05 08:02:17;;;;;;;5.20;3.00;;;0.90;1.00;;;;;;5115249;28;20194;-64
2021/03/05 08:07:20;;;;;;;4.32;2.40;;;1.00;1.00;;;;;;5135531;28;20179;-63
2021/03/05 08:09:46;;;;;;;2.78;2.08;;;0.80;99.90;;;;;;5136860;28;20166;-66
2021/03/05 08:12:34;;;;;;;9.23;3.63;;;0.70;1.00;;;;;;5137169;27;20257;-65
2021/03/05 08:15:09;;;;;;;9.43;3.08;;;0.80;99.90;;;;;;5138660;27;20178;-70
2021/03/05 08:17:49;;;;;;;8.35;4.70;;;0.90;1.00;;;;;;5141361;28;20197;-67
2021/03/05 08:20:17;;;;;;;5.78;3.28;;;1.10;1.00;;;;;;5139871;27;20218;-65
2021/03/05 08:22:58;;;;;;;4.35;3.00;;;1.20;1.00;;;;;;5133196;28;20533;-64
2021/03/05 08:25:25;;;;;;;4.38;2.60;;;1.00;1.00;;;;;;5119319;28;20202;-65
2021/03/05 08:27:51;;;;;;;9.07;3.70;;;1.20;1.00;;;;;;5117114;28;20195;-62
2021/03/05 08:30:37;;;;;;;4.20;3.13;;;1.30;1.00;;;;;;5116088;28;20179;-62
2021/03/05 08:33:07;;;;;;;4.75;2.95;;;1.30;1.00;;;;;;5119792;28;20176;-66
2021/03/05 08:35:53;;;;;;;4.72;3.13;;;1.30;99.90;;;;;;5138057;28;20194;-72
2021/03/05 08:38:36;;;;;;;3.40;2.60;;;1.40;20.80;;;;;;5144653;27;20215;-67
2021/03/05 08:41:05;;;;;;;7.85;4.07;;;1.40;1.00;;;;;;5118955;28;20214;-65
2021/03/05 08:43:36;;;;;;;3.72;3.33;;;1.60;1.00;;;;;;5117923;28;20183;-66
2021/03/05 08:46:07;;;;;;;4.90;3.53;;;1.90;99.90;;;;;;5117055;28;20295;-64
2021/03/05 08:48:48;;;;;;;2.40;2.20;;;2.00;1.00;;;;;;5116646;28;20264;-63
2021/03/05 08:51:20;;;;;;;4.93;2.20;;;1.90;1.00;;;;;;5115432;28;20190;-66
2021/03/05 08:53:55;;;;;;;3.55;2.30;;;2.10;1.00;;;;;;5115492;28;20631;-67
2021/03/05 08:56:26;;;;;;;3.20;2.42;;;2.00;56.70;;;;;;5119122;28;20186;-64
2021/03/05 08:58:59;;;;;;;4.15;3.60;;;1.90;99.90;;;;;;5137629;27;20174;-64
2021/03/05 09:01:36;;;;;;;3.30;2.30;;;2.10;99.90;;;;;;5140665;27;20239;-67
2021/03/05 09:04:23;;;;;;;6.65;2.50;;;2.00;1.00;;;;;;5142038;27;20276;-62
2021/03/05 09:06:54;;;;;;;7.85;3.58;;;2.10;99.90;;;;;;5142468;27;20182;-63
2021/03/05 09:09:30;;;;;;;5.22;2.40;;;2.20;1.00;;;;;;5141831;27;20658;-63
2021/03/05 09:12:13;;;;;;;5.97;2.30;;;2.30;1.00;;;;;;5141491;27;20181;-64
2021/03/05 09:15:03;;;;;;;2.88;2.30;;;2.40;1.00;;;;;;5140039;27;20189;-63
2021/03/05 09:17:31;;;;;;;3.15;2.63;;;2.50;99.90;;;;;;5142497;27;20175;-67
2021/03/05 09:19:57;;;;;;;5.32;2.40;;;2.60;1.00;;;;;;5140141;27;20175;-63
2021/03/05 09:22:25;;;;;;;4.80;1.80;;;2.80;99.90;;;;;;5139016;27;20187;-64
2021/03/05 09:25:01;;;;;;;1.60;1.48;;;2.80;99.90;;;;;;5139775;27;20201;-67
2021/03/05 09:27:34;;;;;;;5.43;2.90;;;2.80;93.40;;;;;;5140439;27;20181;-62
2021/03/05 09:30:20;;;;;;;2.55;1.80;;;2.80;9.50;;;;;;5139934;27;20189;-62
2021/03/05 09:32:51;;;;;;;5.65;1.92;;;2.80;1.00;;;;;;5137588;27;20621;-66
2021/03/05 09:35:25;;;;;;;2.25;1.60;;;3.10;1.00;;;;;;5139192;27;20626;-65
2021/03/05 09:37:51;;;;;;;3.40;1.90;;;3.00;1.00;;;;;;5139093;27;20210;-61
2021/03/05 09:40:17;;;;;;;3.67;2.40;;;3.10;1.00;;;;;;5134988;27;20179;-62
2021/03/05 09:42:53;;;;;;;2.95;1.35;;;3.10;1.00;;;;;;5139081;27;20186;-65
2021/03/05 09:45:54;;;;;;;3.60;1.95;;;3.30;1.00;;;;;;5138620;27;20213;-61
2021/03/05 09:48:30;;;;;;;5.10;2.08;;;3.30;1.00;;;;;;5135486;27;20184;-62
2021/03/05 09:51:01;;;;;;;4.30;2.53;;;3.50;1.00;;;;;;5145154;27;20178;-65
2021/03/05 09:53:32;;;;;;;5.18;3.15;;;3.70;1.00;;;;;;5156881;27;20178;-66
2021/03/05 09:56:05;;;;;;;2.88;1.80;;;3.80;99.90;;;;;;5159130;27;20174;-62
2021/03/05 09:58:31;;;;;;;1.52;1.23;;;3.80;99.90;;;;;;5122040;27;21682;-66
2021/03/05 10:00:57;;;;;;;1.33;1.10;;;4.00;99.90;;;;;;5144078;27;20653;-65
2021/03/05 10:03:24;;;;;;;3.20;1.95;;;4.20;99.90;;;;;;5154258;27;20442;-63
2021/03/05 10:05:50;;;;;;;3.85;1.42;;;4.20;99.90;;;;;;5133727;27;20203;-61
2021/03/05 10:08:20;;;;;;;1.77;1.17;;;4.20;88.30;;;;;;5144469;27;20491;-63
2021/03/05 10:10:59;;;;;;;5.53;1.27;;;4.10;1.00;;;;;;5158289;27;20419;-63
2021/03/05 10:13:41;;;;;;;2.72;1.30;;;4.20;1.00;;;;;;5158509;27;20376;-63
2021/03/05 10:16:15;;;;;;;3.65;1.33;;;4.10;1.00;;;;;;5142438;27;20176;-66
2021/03/05 10:18:43;;;;;;;2.92;0.90;;;4.20;1.00;;;;;;5116755;28;20194;-65
2021/03/05 10:21:10;;;;;;;2.05;0.88;;;4.10;1.00;;;;;;5116896;28;20206;-65
2021/03/05 10:23:37;;;;;;;1.45;0.90;;;4.20;1.00;;;;;;5117610;28;20183;-60
2021/03/05 10:26:10;;;;;;;2.05;1.58;;;4.10;1.00;;;;;;5117560;28;20215;-60
2021/03/05 10:28:36;;;;;;;1.20;0.90;;;4.20;1.00;;;;;;5118292;28;20201;-63
2021/03/05 10:31:04;;;;;;;2.53;0.60;;;3.90;1.00;;;;;;5118953;27;20173;-62
2021/03/05 10:33:37;;;;;;;3.72;0.80;;;4.20;1.00;;;;;;5149464;27;20183;-60
2021/03/05 10:36:03;;;;;;;6.30;1.33;;;4.00;1.00;;;;;;5118339;28;20176;-59
2021/03/05 10:38:29;;;;;;;2.10;0.77;;;4.00;1.00;;;;;;5118741;27;20185;-60
2021/03/05 10:41:01;;;;;;;2.43;0.80;;;4.10;1.00;;;;;;5138488;27;20192;-65
2021/03/05 10:43:27;;;;;;;1.48;0.73;;;4.20;1.00;;;;;;5138572;27;20675;-64
2021/03/05 10:45:53;;;;;;;1.60;0.80;;;4.30;1.00;;;;;;5129564;27;20206;-65
2021/03/05 10:48:18;;;;;;;2.10;0.50;;;4.50;1.00;;;;;;5143518;27;20246;-65
2021/03/05 10:50:44;;;;;;;1.57;1.03;;;4.80;1.00;;;;;;5149461;27;20414;-63
2021/03/05 10:53:10;;;;;;;1.00;0.80;;;4.70;1.00;;;;;;5150589;27;20182;-64
2021/03/05 10:55:36;;;;;;;1.10;0.60;;;4.50;1.00;;;;;;5141695;27;20431;-64
2021/03/05 10:58:02;;;;;;;1.83;0.80;;;4.40;1.00;;;;;;5141902;27;20179;-62
2021/03/05 11:00:29;;;;;;;0.75;0.65;;;4.50;1.00;;;;;;5136082;27;20178;-63
2021/03/05 11:02:54;;;;;;;3.20;1.55;;;4.70;1.00;;;;;;5129888;27;20180;-63
2021/03/05 11:05:20;;;;;;;3.97;1.23;;;4.60;1.00;;;;;;5147125;27;20225;-63
2021/03/05 11:07:46;;;;;;;2.37;1.07;;;4.50;1.00;;;;;;5136784;27;20475;-62
2021/03/05 11:10:12;;;;;;;5.90;0.90;;;4.70;1.00;;;;;;5137524;27;20261;-67
2021/03/05 11:12:38;;;;;;;1.05;0.60;;;4.70;1.00;;;;;;5136311;27;20260;-65
2021/03/05 11:15:04;;;;;;;1.37;0.30;;;4.90;1.00;;;;;;5137116;27;20182;-65
2021/03/05 11:17:30;;;;;;;0.90;0.55;;;4.70;1.00;;;;;;5137681;27;20183;-63
2021/03/05 11:19:56;;;;;;;4.25;0.77;;;4.40;1.00;;;;;;5144212;27;20205;-63
2021/03/05 11:22:23;;;;;;;1.48;0.70;;;4.60;1.00;;;;;;5117395;27;20239;-63
2021/03/05 11:24:51;;;;;;;1.40;1.20;;;4.80;1.00;;;;;;5116680;28;20636;-64
2021/03/05 11:27:17;;;;;;;2.92;0.80;;;5.10;1.00;;;;;;5116610;28;20522;-60
2021/03/05 11:29:43;;;;;;;2.60;0.83;;;5.10;1.00;;;;;;5116183;28;20171;-61
2021/03/05 11:32:09;;;;;;;2.60;0.60;;;5.40;1.00;;;;;;5116225;27;20252;-64
2021/03/05 11:34:35;;;;;;;1.50;0.63;;;5.40;1.00;;;;;;5133916;27;20440;-63
2021/03/05 11:37:01;;;;;;;1.17;0.65;;;4.90;1.00;;;;;;5136319;27;20435;-63
2021/03/05 11:39:26;;;;;;;1.77;1.10;;;5.00;1.00;;;;;;5138581;27;20179;-65
2021/03/05 11:41:54;;;;;;;1.80;1.00;;;5.20;1.00;;;;;;5135371;27;20179;-65
2021/03/05 11:44:20;;;;;;;1.90;1.05;;;5.20;1.00;;;;;;5139048;27;20458;-65
2021/03/05 11:46:46;;;;;;;1.92;1.00;;;5.30;1.00;;;;;;5157712;27;20506;-65
2021/03/05 11:49:12;;;;;;;2.63;1.37;;;5.20;1.00;;;;;;5154136;27;20165;-64
2021/03/05 11:51:37;;;;;;;2.03;1.40;;;5.30;1.00;;;;;;5134735;27;20183;-65
2021/03/05 11:54:03;;;;;;;1.10;0.77;;;5.10;1.00;;;;;;5138697;27;20178;-70
2021/03/05 11:56:29;;;;;;;2.27;0.90;;;5.20;1.00;;;;;;5142597;27;20639;-62
2021/03/05 11:58:54;;;;;;;2.70;1.80;;;5.20;1.00;;;;;;5116395;27;20179;-67
2021/03/05 12:01:20;;;;;;;1.23;0.93;;;5.40;1.00;;;;;;5133680;27;20382;-65
2021/03/05 12:03:45;;;;;;;2.97;0.70;;;5.50;1.00;;;;;;5148631;27;20265;-64
2021/03/05 12:06:14;;;;;;;1.50;0.53;;;5.60;1.00;;;;;;5152722;27;20244;-61
2021/03/05 12:08:40;;;;;;;0.93;0.65;;;5.70;1.00;;;;;;5147681;27;20185;-62
2021/03/05 12:11:05;;;;;;;2.03;0.70;;;5.90;1.00;;;;;;5156284;27;20170;-63
2021/03/05 12:13:31;;;;;;;2.70;1.40;;;5.70;1.00;;;;;;5154671;27;20201;-64
2021/03/05 12:15:56;;;;;;;0.60;0.50;;;5.70;1.00;;;;;;5144275;27;20669;-64
2021/03/05 12:18:22;;;;;;;2.83;1.30;;;5.70;1.00;;;;;;5154825;27;20188;-66
2021/03/05 12:20:48;;;;;;;0.70;0.40;;;5.60;1.00;;;;;;5156701;27;20174;-64
2021/03/05 12:23:14;;;;;;;1.53;1.40;;;5.70;1.00;;;;;;5155990;27;20437;-65
2021/03/05 12:25:39;;;;;;;1.53;0.80;;;5.70;1.00;;;;;;5157568;27;20260;-66
2021/03/05 12:28:05;;;;;;;1.70;1.00;;;5.80;1.00;;;;;;5156223;27;20170;-67
2021/03/05 12:30:31;;;;;;;1.08;0.50;;;5.80;1.00;;;;;;5154748;27;20180;-62
2021/03/05 12:33:03;;;;;;;1.43;0.70;;;5.60;1.00;;;;;;5144350;27;20168;-64
2021/03/05 12:35:29;;;;;;;0.93;0.75;;;5.80;1.00;;;;;;5136092;27;20277;-66
2021/03/05 12:37:57;;;;;;;4.93;1.30;;;5.70;1.00;;;;;;5139643;27;20207;-65
2021/03/05 12:40:23;;;;;;;4.05;2.60;;;5.60;1.00;;;;;;5129743;27;20179;-63
2021/03/05 12:42:54;;;;;;;8.50;5.33;;;5.80;1.00;;;;;;5142425;27;20192;-64
2021/03/05 12:45:20;;;;;;;4.25;1.10;;;6.10;1.00;;;;;;5150071;27;20228;-63
2021/03/05 12:47:46;;;;;;;3.77;2.60;;;6.30;1.00;;;;;;5155904;27;20179;-64
2021/03/05 12:50:12;;;;;;;2.40;1.67;;;6.20;1.00;;;;;;5129532;27;20450;-64
2021/03/05 12:52:37;;;;;;;2.03;1.00;;;6.20;1.00;;;;;;5139130;27;20199;-66
2021/03/05 12:55:03;;;;;;;2.37;1.00;;;6.00;1.00;;;;;;5138724;27;20183;-62
2021/03/05 12:57:29;;;;;;;0.90;0.60;;;6.00;1.00;;;;;;5145454;27;20193;-63
2021/03/05 12:59:55;;;;;;;1.83;1.00;;;6.10;1.00;;;;;;5154627;27;20221;-61
2021/03/05 13:02:20;;;;;;;1.60;0.90;;;6.00;1.00;;;;;;5159278;27;20618;-63
2021/03/05 13:04:49;;;;;;;1.57;0.90;;;6.20;1.00;;;;;;5159332;27;20213;-60
2021/03/05 13:07:15;;;;;;;1.85;0.75;;;6.50;1.00;;;;;;5158010;27;20496;-61
2021/03/05 13:09:41;;;;;;;2.00;0.80;;;6.70;1.00;;;;;;5158907;27;20189;-62
2021/03/05 13:12:08;;;;;;;1.33;0.70;;;6.60;1.00;;;;;;5159280;27;20171;-65